createdAt,value
2019-02-18T00:02:11.532Z,6.70
2019-02-18T00:04:41.854Z,6.70
2019-02-18T00:07:14.535Z,6.90
2019-02-18T00:09:43.306Z,6.90
2019-02-18T00:12:13.488Z,6.90
2019-02-18T00:14:48.534Z,7.00
2019-02-18T00:17:18.724Z,6.90
2019-02-18T00:19:51.922Z,6.90
2019-02-18T00:22:21.992Z,6.80
2019-02-18T00:24:52.170Z,6.70
2019-02-18T00:27:20.934Z,6.60
2019-02-18T00:29:51.372Z,6.50
2019-02-18T00:32:23.593Z,6.50
2019-02-18T00:34:53.639Z,6.50
2019-02-18T00:37:24.719Z,6.50
2019-02-18T00:39:53.372Z,6.50
2019-02-18T00:42:22.120Z,6.50
2019-02-18T00:44:53.833Z,6.40
2019-02-18T00:47:22.536Z,6.40
2019-02-18T00:49:51.656Z,6.30
2019-02-18T00:52:23.307Z,6.40
2019-02-18T00:54:52.184Z,6.50
2019-02-18T00:57:23.210Z,6.40
2019-02-18T00:59:53.291Z,6.50
2019-02-18T01:02:25.024Z,6.50
2019-02-18T01:04:57.386Z,6.50
2019-02-18T01:07:34.420Z,6.60
2019-02-18T01:09:57.903Z,6.60
2019-02-18T01:12:28.116Z,6.60
2019-02-18T01:14:58.119Z,6.60
2019-02-18T01:17:26.607Z,6.60
2019-02-18T01:19:55.397Z,6.60
2019-02-18T01:22:24.051Z,6.50
2019-02-18T01:24:53.995Z,6.50
2019-02-18T01:27:22.798Z,6.40
2019-02-18T01:29:52.313Z,6.40
2019-02-18T01:32:23.450Z,6.30
2019-02-18T01:34:52.349Z,6.20
2019-02-18T01:37:22.697Z,6.20
2019-02-18T01:39:57.144Z,6.20
2019-02-18T01:42:27.874Z,6.30
2019-02-18T01:44:56.522Z,6.40
2019-02-18T01:47:29.067Z,6.40
2019-02-18T01:49:58.222Z,6.40
2019-02-18T01:52:26.808Z,6.40
2019-02-18T01:54:56.975Z,6.30
2019-02-18T01:57:26.296Z,6.40
2019-02-18T01:59:56.424Z,6.40
2019-02-18T02:02:27.231Z,6.30
2019-02-18T02:04:56.054Z,6.30
2019-02-18T02:07:26.399Z,6.30
2019-02-18T02:09:58.487Z,6.30
2019-02-18T02:12:31.795Z,6.30
2019-02-18T02:15:05.201Z,6.30
2019-02-18T02:17:38.796Z,6.30
2019-02-18T02:20:10.398Z,6.30
2019-02-18T02:22:40.413Z,6.20
2019-02-18T02:25:13.253Z,6.20
2019-02-18T02:27:41.871Z,6.10
2019-02-18T02:30:12.133Z,6.10
2019-02-18T02:32:42.344Z,6.10
2019-02-18T02:35:13.133Z,6.30
2019-02-18T02:37:45.076Z,6.40
2019-02-18T02:40:13.863Z,6.50
2019-02-18T02:42:44.383Z,6.50
2019-02-18T02:45:13.249Z,6.50
2019-02-18T02:47:42.631Z,6.60
2019-02-18T02:50:12.850Z,6.50
2019-02-18T02:52:44.782Z,6.50
2019-02-18T02:55:14.215Z,6.40
2019-02-18T02:57:42.871Z,6.50
2019-02-18T03:00:14.737Z,6.40
2019-02-18T03:02:43.812Z,6.30
2019-02-18T03:05:14.138Z,6.20
2019-02-18T03:07:43.439Z,6.20
2019-02-18T03:10:16.583Z,6.20
2019-02-18T03:12:45.324Z,6.30
2019-02-18T03:15:18.206Z,6.40
2019-02-18T03:17:47.236Z,6.40
2019-02-18T03:20:16.282Z,6.40
2019-02-18T03:22:44.925Z,6.30
2019-02-18T03:25:25.104Z,6.20
2019-02-18T03:27:59.657Z,6.00
2019-02-18T03:30:45.340Z,6.00
2019-02-18T03:33:23.413Z,6.00
2019-02-18T03:35:53.679Z,6.00
2019-02-18T03:38:31.171Z,5.90
2019-02-18T03:41:02.747Z,6.00
2019-02-18T03:43:25.136Z,6.00
2019-02-18T03:45:58.938Z,6.00
2019-02-18T03:48:27.843Z,5.90
2019-02-18T03:50:59.717Z,5.90
2019-02-18T03:53:30.041Z,5.90
2019-02-18T03:56:00.282Z,5.90
2019-02-18T03:58:32.744Z,5.80
2019-02-18T04:01:03.325Z,5.80
2019-02-18T04:03:34.745Z,5.80
2019-02-18T04:06:08.563Z,5.70
2019-02-18T04:08:42.927Z,5.70
2019-02-18T04:11:12.887Z,5.70
2019-02-18T04:13:44.347Z,5.80
2019-02-18T04:16:13.008Z,5.80
2019-02-18T04:18:42.265Z,5.80
2019-02-18T04:21:11.105Z,5.90
2019-02-18T04:23:39.811Z,5.90
2019-02-18T04:26:08.625Z,5.90
2019-02-18T04:28:41.142Z,5.90
2019-02-18T04:31:14.059Z,5.80
2019-02-18T04:33:47.477Z,5.80
2019-02-18T04:36:17.662Z,5.80
2019-02-18T04:38:54.092Z,5.90
2019-02-18T04:41:26.512Z,5.90
2019-02-18T04:43:55.316Z,5.90
2019-02-18T04:46:25.844Z,5.90
2019-02-18T04:48:57.515Z,5.90
2019-02-18T04:51:27.512Z,5.90
2019-02-18T04:54:00.699Z,5.90
2019-02-18T04:56:30.499Z,6.10
2019-02-18T04:58:59.435Z,6.20
2019-02-18T05:01:30.517Z,6.40
2019-02-18T05:04:02.706Z,6.50
2019-02-18T05:06:31.529Z,6.50
2019-02-18T05:09:05.398Z,6.50
2019-02-18T05:11:37.623Z,6.50
2019-02-18T05:14:06.551Z,6.40
2019-02-18T05:16:38.548Z,6.40
2019-02-18T05:19:07.867Z,6.50
2019-02-18T05:21:52.214Z,6.40
2019-02-18T05:24:23.095Z,6.30
2019-02-18T05:26:51.805Z,6.30
2019-02-18T05:29:20.352Z,6.30
2019-02-18T05:31:50.553Z,6.40
2019-02-18T05:34:20.210Z,6.40
2019-02-18T05:36:49.321Z,6.30
2019-02-18T05:39:18.628Z,6.30
2019-02-18T05:41:49.648Z,6.40
2019-02-18T05:44:18.687Z,6.50
2019-02-18T05:46:48.789Z,6.50
2019-02-18T05:49:17.598Z,6.50
2019-02-18T05:51:47.949Z,6.60
2019-02-18T05:54:16.944Z,6.60
2019-02-18T05:56:47.614Z,6.60
2019-02-18T05:59:17.995Z,6.60
2019-02-18T06:01:49.070Z,6.50
2019-02-18T06:04:19.625Z,6.50
2019-02-18T06:06:48.458Z,6.40
2019-02-18T06:09:29.222Z,6.40
2019-02-18T06:11:50.500Z,6.40
2019-02-18T06:14:20.539Z,6.30
2019-02-18T06:16:50.726Z,6.30
2019-02-18T06:19:19.559Z,6.30
2019-02-18T06:21:48.987Z,6.30
2019-02-18T06:24:17.924Z,6.30
2019-02-18T06:26:48.388Z,6.30
2019-02-18T06:29:20.273Z,6.40
2019-02-18T06:31:53.076Z,6.50
2019-02-18T06:34:24.504Z,6.50
2019-02-18T06:36:58.615Z,6.50
2019-02-18T06:39:27.728Z,6.50
2019-02-18T06:41:57.712Z,6.50
2019-02-18T06:44:28.141Z,6.60
2019-02-18T06:47:01.439Z,6.60
2019-02-18T06:49:32.210Z,6.70
2019-02-18T06:52:02.848Z,6.80
2019-02-18T06:54:37.570Z,6.70
2019-02-18T06:57:18.655Z,6.70
2019-02-18T06:59:46.289Z,6.70
2019-02-18T07:02:17.794Z,6.70
2019-02-18T07:04:48.516Z,6.60
2019-02-18T07:07:33.530Z,6.70
2019-02-18T07:10:04.225Z,6.80
2019-02-18T07:12:36.764Z,6.80
2019-02-18T07:15:06.924Z,6.80
2019-02-18T07:17:40.636Z,6.80
2019-02-18T07:20:16.723Z,6.80
2019-02-18T07:22:52.833Z,6.90
2019-02-18T07:25:23.638Z,7.00
2019-02-18T07:27:55.801Z,7.00
2019-02-18T07:30:36.884Z,7.10
2019-02-18T07:33:08.400Z,7.10
2019-02-18T07:35:39.842Z,7.30
2019-02-18T07:38:10.422Z,7.40
2019-02-18T07:40:42.871Z,7.50
2019-02-18T07:43:14.218Z,7.60
2019-02-18T07:45:44.506Z,7.70
2019-02-18T07:48:14.988Z,7.90
2019-02-18T07:50:44.296Z,8.10
2019-02-18T07:53:23.462Z,8.20
2019-02-18T07:56:00.300Z,8.40
2019-02-18T07:58:26.633Z,8.50
2019-02-18T08:01:05.954Z,8.50
2019-02-18T08:03:35.104Z,8.60
2019-02-18T08:06:03.815Z,8.70
2019-02-18T08:08:32.529Z,8.90
2019-02-18T08:11:01.354Z,9.10
2019-02-18T08:13:32.478Z,9.30
2019-02-18T08:16:04.160Z,9.30
2019-02-18T08:18:34.523Z,9.40
2019-02-18T08:21:05.622Z,9.40
2019-02-18T08:23:38.190Z,9.60
2019-02-18T08:26:10.471Z,9.70
2019-02-18T08:28:43.639Z,10.20
2019-02-18T08:31:15.621Z,10.80
2019-02-18T08:33:46.655Z,11.10
2019-02-18T08:36:18.512Z,11.20
2019-02-18T08:38:47.195Z,11.30
2019-02-18T08:41:15.994Z,11.50
2019-02-18T08:43:44.666Z,11.80
2019-02-18T08:46:14.059Z,11.80
2019-02-18T08:48:50.212Z,11.70
2019-02-18T08:51:19.391Z,11.80
2019-02-18T08:53:49.057Z,11.60
2019-02-18T08:56:18.195Z,11.60
2019-02-18T08:58:48.890Z,11.80
2019-02-18T09:01:25.322Z,12.00
2019-02-18T09:03:54.149Z,12.20
2019-02-18T09:06:23.269Z,12.20
2019-02-18T09:08:51.968Z,12.20
2019-02-18T09:11:21.985Z,12.20
2019-02-18T09:13:53.260Z,12.20
2019-02-18T09:16:23.216Z,12.00
2019-02-18T09:18:52.548Z,12.00
2019-02-18T09:21:21.468Z,12.00
2019-02-18T09:23:55.583Z,12.30
2019-02-18T09:26:25.005Z,12.20
2019-02-18T09:28:54.387Z,12.00
2019-02-18T09:31:24.769Z,11.80
2019-02-18T09:33:53.732Z,11.90
2019-02-18T09:36:22.788Z,11.90
2019-02-18T09:38:52.453Z,11.70
2019-02-18T09:41:22.514Z,11.80
2019-02-18T09:43:52.160Z,11.80
2019-02-18T09:46:21.775Z,11.80
2019-02-18T09:48:50.674Z,11.70
2019-02-18T09:51:19.297Z,11.60
2019-02-18T09:53:48.122Z,11.70
2019-02-18T09:56:18.885Z,11.80
2019-02-18T09:58:50.173Z,11.90
2019-02-18T10:01:19.436Z,12.30
2019-02-18T10:03:52.113Z,12.30
2019-02-18T10:06:22.312Z,12.40
2019-02-18T10:08:53.975Z,12.30
2019-02-18T10:11:27.339Z,12.10
2019-02-18T10:13:56.212Z,12.00
2019-02-18T10:16:28.427Z,12.20
2019-02-18T10:18:57.072Z,12.30
2019-02-18T10:21:27.756Z,12.40
2019-02-18T10:23:56.616Z,12.40
2019-02-18T10:26:27.115Z,12.80
2019-02-18T10:28:56.214Z,13.10
2019-02-18T10:31:24.855Z,13.20
2019-02-18T10:33:56.091Z,13.60
2019-02-18T10:36:26.354Z,14.00
2019-02-18T10:38:56.685Z,13.80
2019-02-18T10:41:26.869Z,13.90
2019-02-18T10:43:55.640Z,14.00
2019-02-18T10:46:26.192Z,14.30
2019-02-18T10:48:58.053Z,14.50
2019-02-18T10:51:30.791Z,14.20
2019-02-18T10:54:01.979Z,14.00
2019-02-18T10:56:30.847Z,14.00
2019-02-18T10:58:59.644Z,14.10
2019-02-18T11:01:28.458Z,14.20
2019-02-18T11:03:59.560Z,14.40
2019-02-18T11:06:29.776Z,14.70
2019-02-18T11:08:58.583Z,14.60
2019-02-18T11:11:27.372Z,14.50
2019-02-18T11:13:56.823Z,14.10
2019-02-18T11:16:27.943Z,13.70
2019-02-18T11:18:58.025Z,13.80
2019-02-18T11:21:32.211Z,13.80
2019-02-18T11:23:59.936Z,13.70
2019-02-18T11:26:31.275Z,13.50
2019-02-18T11:29:02.607Z,13.60
2019-02-18T11:31:32.843Z,14.10
2019-02-18T11:34:01.667Z,14.70
2019-02-18T11:36:31.595Z,14.90
2019-02-18T11:39:20.447Z,14.90
2019-02-18T11:41:49.196Z,14.70
2019-02-18T11:44:22.798Z,14.60
2019-02-18T11:46:52.087Z,14.50
2019-02-18T11:49:22.792Z,14.10
2019-02-18T11:52:01.115Z,13.50
2019-02-18T11:54:31.552Z,13.20
2019-02-18T11:57:00.340Z,13.30
2019-02-18T11:59:29.110Z,13.50
2019-02-18T12:01:59.742Z,13.90
2019-02-18T12:04:32.446Z,14.30
2019-02-18T12:07:01.685Z,14.70
2019-02-18T12:09:30.754Z,14.80
2019-02-18T12:12:04.695Z,14.80
2019-02-18T12:14:31.728Z,14.60
2019-02-18T12:17:02.152Z,14.10
2019-02-18T12:19:31.008Z,13.50
2019-02-18T12:22:01.712Z,13.30
2019-02-18T12:24:32.439Z,13.60
2019-02-18T12:27:05.271Z,14.00
2019-02-18T12:29:34.820Z,14.30
2019-02-18T12:32:05.353Z,14.30
2019-02-18T12:34:36.511Z,14.20
2019-02-18T12:37:12.032Z,14.20
2019-02-18T12:39:43.694Z,14.20
2019-02-18T12:42:17.172Z,13.90
2019-02-18T12:44:48.385Z,13.60
2019-02-18T12:47:17.972Z,13.50
2019-02-18T12:49:50.998Z,13.40
2019-02-18T12:52:19.768Z,13.40
2019-02-18T12:54:49.821Z,13.50
2019-02-18T12:57:20.139Z,13.70
2019-02-18T12:59:53.090Z,13.90
2019-02-18T13:02:24.051Z,13.70
2019-02-18T13:04:56.496Z,13.60
2019-02-18T13:07:26.714Z,13.50
2019-02-18T13:10:00.365Z,13.30
2019-02-18T13:12:27.029Z,13.20
2019-02-18T13:14:56.427Z,13.10
2019-02-18T13:17:25.474Z,12.90
2019-02-18T13:19:55.600Z,12.80
2019-02-18T13:22:24.528Z,12.70
2019-02-18T13:24:54.530Z,12.50
2019-02-18T13:27:27.098Z,12.50
2019-02-18T13:29:56.261Z,12.50
2019-02-18T13:32:30.264Z,12.40
2019-02-18T13:35:01.614Z,12.40
2019-02-18T13:37:30.751Z,12.30
2019-02-18T13:40:02.227Z,12.20
2019-02-18T13:42:32.409Z,12.20
2019-02-18T13:45:07.321Z,12.20
2019-02-18T13:47:36.503Z,12.10
2019-02-18T13:50:10.635Z,11.90
2019-02-18T13:52:39.425Z,11.70
2019-02-18T13:55:10.787Z,11.60
2019-02-18T13:57:40.266Z,11.40
2019-02-18T14:00:17.546Z,11.40
2019-02-18T14:02:48.578Z,11.20
2019-02-18T14:05:18.887Z,11.10
2019-02-18T14:07:47.991Z,11.00
2019-02-18T14:10:17.445Z,11.00
2019-02-18T14:12:48.387Z,11.00
2019-02-18T14:15:18.900Z,10.90
2019-02-18T14:17:50.493Z,10.80
2019-02-18T14:20:20.778Z,10.70
2019-02-18T14:22:53.131Z,10.60
2019-02-18T14:25:22.587Z,10.50
2019-02-18T14:27:52.450Z,10.40
2019-02-18T14:30:22.665Z,10.30
2019-02-18T14:32:51.767Z,10.30
2019-02-18T14:35:25.380Z,10.30
2019-02-18T14:37:55.951Z,10.20
2019-02-18T14:40:27.816Z,10.10
2019-02-18T14:42:56.684Z,10.10
2019-02-18T14:45:28.958Z,10.00
2019-02-18T14:47:58.638Z,9.90
2019-02-18T14:50:35.308Z,9.80
2019-02-18T14:53:06.070Z,9.80
2019-02-18T14:55:35.542Z,9.80
2019-02-18T14:58:16.548Z,9.70
2019-02-18T15:00:51.354Z,9.60
2019-02-18T15:03:27.046Z,9.60
2019-02-18T15:05:59.326Z,9.50
2019-02-18T15:08:29.356Z,9.40
2019-02-18T15:11:00.824Z,9.30
2019-02-18T15:13:31.074Z,9.20
2019-02-18T15:16:01.613Z,9.30
2019-02-18T15:18:30.422Z,9.20
2019-02-18T15:21:00.601Z,9.20
2019-02-18T15:23:33.664Z,9.10
2019-02-18T15:26:04.073Z,9.20
2019-02-18T15:28:35.749Z,9.10
2019-02-18T15:31:09.337Z,9.00
2019-02-18T15:33:47.376Z,8.80
2019-02-18T15:36:17.992Z,8.70
2019-02-18T15:38:50.288Z,8.60
2019-02-18T15:41:19.155Z,8.60
2019-02-18T15:43:47.871Z,8.50
2019-02-18T15:46:18.084Z,8.40
2019-02-18T15:48:50.660Z,8.40
2019-02-18T15:51:23.155Z,8.30
2019-02-18T15:53:52.087Z,8.30
2019-02-18T15:56:22.515Z,8.20
2019-02-18T15:58:54.360Z,8.00
2019-02-18T16:01:23.124Z,8.00
2019-02-18T16:03:52.286Z,8.00
2019-02-18T16:06:23.837Z,7.90
2019-02-18T16:08:53.140Z,7.80
2019-02-18T16:11:26.636Z,7.90
2019-02-18T16:13:56.003Z,7.90
2019-02-18T16:16:29.235Z,7.80
2019-02-18T16:19:01.261Z,7.70
2019-02-18T16:21:30.391Z,7.60
2019-02-18T16:23:59.227Z,7.40
2019-02-18T16:26:27.992Z,7.30
2019-02-18T16:28:58.178Z,7.20
2019-02-18T16:31:30.532Z,7.10
2019-02-18T16:34:00.435Z,7.10
2019-02-18T16:36:31.375Z,7.00
2019-02-18T16:39:12.694Z,6.90
2019-02-18T16:41:43.415Z,6.90
2019-02-18T16:44:13.240Z,6.70
2019-02-18T16:46:45.046Z,6.70
2019-02-18T16:49:19.640Z,6.60
2019-02-18T16:51:48.597Z,6.60
2019-02-18T16:54:23.188Z,6.60
2019-02-18T16:56:51.993Z,6.70
2019-02-18T16:59:22.799Z,6.90
2019-02-18T17:01:53.836Z,7.00
2019-02-18T17:04:24.040Z,7.00
2019-02-18T17:06:54.126Z,7.00
2019-02-18T17:09:24.942Z,7.10
2019-02-18T17:11:57.426Z,7.00
2019-02-18T17:14:28.454Z,7.00
2019-02-18T17:17:01.880Z,6.90
2019-02-18T17:19:32.345Z,6.70
2019-02-18T17:22:04.567Z,6.60
2019-02-18T17:24:34.669Z,6.60
2019-02-18T17:27:06.192Z,6.60
2019-02-18T17:29:41.056Z,6.50
2019-02-18T17:32:13.171Z,6.50
2019-02-18T17:34:45.679Z,6.30
2019-02-18T17:37:14.905Z,6.20
2019-02-18T17:39:48.752Z,6.20
2019-02-18T17:42:18.084Z,6.20
2019-02-18T17:44:48.388Z,6.10
2019-02-18T17:47:17.590Z,6.00
2019-02-18T17:49:46.652Z,5.90
2019-02-18T17:52:18.587Z,5.80
2019-02-18T17:54:53.312Z,5.90
2019-02-18T17:57:23.716Z,5.80
2019-02-18T17:59:55.888Z,5.70
2019-02-18T18:02:33.469Z,5.60
2019-02-18T18:05:02.307Z,5.40
2019-02-18T18:07:31.067Z,5.30
2019-02-18T18:10:01.065Z,5.30
2019-02-18T18:12:36.524Z,5.20
2019-02-18T18:15:10.124Z,5.20
2019-02-18T18:17:41.794Z,5.10
2019-02-18T18:20:15.298Z,5.00
2019-02-18T18:22:44.050Z,5.00
2019-02-18T18:25:19.895Z,5.00
2019-02-18T18:27:48.733Z,5.00
2019-02-18T18:30:20.314Z,5.00
2019-02-18T18:32:51.849Z,5.00
2019-02-18T18:38:17.169Z,5.00
2019-02-18T18:40:45.741Z,4.80
2019-02-18T18:43:15.509Z,4.80
2019-02-18T18:45:45.550Z,4.70
2019-02-18T18:48:15.561Z,4.60
2019-02-18T18:50:44.366Z,4.50
2019-02-18T18:53:13.221Z,4.40
2019-02-18T18:55:44.019Z,4.30
2019-02-18T18:58:13.895Z,4.20
2019-02-18T19:00:45.781Z,4.20
2019-02-18T19:03:17.532Z,4.30
2019-02-18T19:05:50.678Z,4.40
2019-02-18T19:08:20.712Z,4.40
2019-02-18T19:10:49.551Z,4.40
2019-02-18T19:13:21.763Z,4.40
2019-02-18T19:15:50.717Z,4.40
2019-02-18T19:18:21.589Z,4.30
2019-02-18T19:20:50.378Z,4.30
2019-02-18T19:23:20.542Z,4.30
2019-02-18T19:25:53.846Z,4.20
2019-02-18T19:28:23.994Z,4.10
2019-02-18T19:30:55.442Z,4.00
2019-02-18T19:33:25.492Z,3.90
2019-02-18T19:35:56.811Z,3.80
2019-02-18T19:38:28.950Z,3.80
2019-02-18T19:40:57.723Z,3.80
2019-02-18T19:43:29.989Z,3.80
2019-02-18T19:45:59.657Z,3.80
2019-02-18T19:48:28.918Z,3.80
2019-02-18T19:50:58.315Z,3.80
2019-02-18T19:53:27.252Z,3.70
2019-02-18T19:55:56.071Z,3.70
2019-02-18T19:58:27.511Z,3.60
2019-02-18T20:00:56.525Z,3.60
2019-02-18T20:03:33.504Z,3.60
2019-02-18T20:06:01.786Z,3.50
2019-02-18T20:08:31.063Z,3.60
2019-02-18T20:11:02.489Z,3.60
2019-02-18T20:13:41.993Z,3.50
2019-02-18T20:16:10.747Z,3.50
2019-02-18T20:18:40.576Z,3.40
2019-02-18T20:21:10.023Z,3.40
2019-02-18T20:23:38.675Z,3.40
2019-02-18T20:26:09.116Z,3.50
2019-02-18T20:28:40.378Z,3.50
2019-02-18T20:31:11.726Z,3.40
2019-02-18T20:33:42.036Z,3.40
2019-02-18T20:36:13.953Z,3.30
2019-02-18T20:38:45.933Z,3.20
2019-02-18T20:41:14.876Z,3.20
2019-02-18T20:43:44.320Z,3.10
2019-02-18T20:46:15.189Z,3.10
2019-02-18T20:48:48.455Z,3.10
2019-02-18T20:51:14.635Z,3.00
2019-02-18T20:53:45.142Z,2.90
2019-02-18T20:56:17.303Z,2.90
2019-02-18T20:58:47.603Z,3.00
2019-02-18T21:01:17.516Z,3.00
2019-02-18T21:04:06.173Z,3.00
2019-02-18T21:06:37.298Z,2.90
2019-02-18T21:09:07.185Z,2.90
2019-02-18T21:11:36.037Z,2.90
2019-02-18T21:14:15.937Z,2.90
2019-02-18T21:19:29.011Z,3.00
2019-02-18T21:21:57.727Z,2.90
2019-02-18T21:24:28.154Z,3.00
2019-02-18T21:26:59.083Z,3.00
2019-02-18T21:29:27.820Z,2.90
2019-02-18T21:31:58.621Z,3.00
2019-02-18T21:34:32.601Z,2.90
2019-02-18T21:37:03.333Z,3.00
2019-02-18T21:39:35.135Z,2.90
2019-02-18T21:42:06.953Z,2.90
2019-02-18T21:44:37.290Z,2.80
2019-02-18T21:47:08.139Z,2.70
2019-02-18T21:49:36.669Z,2.70
2019-02-18T21:52:06.588Z,2.60
2019-02-18T21:54:37.795Z,2.70
2019-02-18T21:57:06.545Z,2.60
2019-02-18T21:59:36.960Z,2.60
2019-02-18T22:02:07.736Z,2.60
2019-02-18T22:04:39.608Z,2.50
2019-02-18T22:07:15.094Z,2.60
2019-02-18T22:09:49.880Z,2.60
2019-02-18T22:12:21.976Z,2.50
2019-02-18T22:14:50.726Z,2.60
2019-02-18T22:17:19.568Z,2.60
2019-02-18T22:19:55.704Z,2.60
2019-02-18T22:22:25.935Z,2.60
2019-02-18T22:24:56.788Z,2.50
2019-02-18T22:27:28.753Z,2.40
2019-02-18T22:29:59.132Z,2.40
2019-02-18T22:32:30.719Z,2.30
2019-02-18T22:34:59.345Z,2.20
2019-02-18T22:37:28.230Z,2.10
2019-02-18T22:40:02.887Z,2.20
2019-02-18T22:42:32.387Z,2.20
2019-02-18T22:45:04.388Z,2.10
2019-02-18T22:47:36.503Z,2.10
2019-02-18T22:50:06.712Z,2.10
2019-02-18T22:52:37.198Z,2.10
2019-02-18T22:55:08.362Z,2.10
2019-02-18T22:57:37.156Z,2.10
2019-02-18T23:00:12.578Z,2.20
2019-02-18T23:02:45.683Z,2.20
2019-02-18T23:05:17.353Z,2.20
2019-02-18T23:07:47.555Z,2.20
2019-02-18T23:10:16.363Z,2.10
2019-02-18T23:12:50.766Z,2.00
2019-02-18T23:15:17.601Z,1.90
2019-02-18T23:17:47.851Z,1.80
2019-02-18T23:20:18.939Z,1.80
2019-02-18T23:22:49.129Z,1.80
2019-02-18T23:25:19.249Z,1.70
2019-02-18T23:27:48.099Z,1.80
2019-02-18T23:30:16.890Z,1.90
2019-02-18T23:32:45.592Z,1.90
2019-02-18T23:35:15.253Z,1.90
2019-02-18T23:37:43.852Z,1.90
2019-02-18T23:40:12.736Z,1.80
2019-02-18T23:42:43.570Z,1.80
2019-02-18T23:45:13.741Z,1.80
2019-02-18T23:47:43.297Z,1.80
2019-02-18T23:50:14.373Z,1.80
2019-02-18T23:52:43.202Z,1.70
2019-02-18T23:55:12.609Z,1.70
2019-02-18T23:57:41.524Z,1.60
